sensor_id;sensor_type;location;lat;lon;timestamp;pressure;altitude;pressure_sealevel;temperature;humidity
22830;BME280;11581;51.250;6.778;2023-08-06T00:01:03;100030.47;;;19.08;72.00
22830;BME280;11581;51.250;6.778;2023-08-06T00:03:30;100026.09;;;19.07;71.99
22830;BME280;11581;51.250;6.778;2023-08-06T00:05:56;100008.97;;;18.95;71.89
22830;BME280;11581;51.250;6.778;2023-08-06T00:08:23;100026.09;;;19.07;71.81
22830;BME280;11581;51.250;6.778;2023-08-06T00:10:49;100019.06;;;19.06;71.88
22830;BME280;11581;51.250;6.778;2023-08-06T00:13:17;100002.41;;;18.78;71.57
22830;BME280;11581;51.250;6.778;2023-08-06T00:15:44;100011.78;;;19.07;71.73
22830;BME280;11581;51.250;6.778;2023-08-06T00:18:11;100012.84;;;19.06;71.60
22830;BME280;11581;51.250;6.778;2023-08-06T00:20:39;100004.72;;;19.06;71.33
22830;BME280;11581;51.250;6.778;2023-08-06T00:23:05;100007.66;;;19.04;71.53
22830;BME280;11581;51.250;6.778;2023-08-06T00:25:32;100005.16;;;19.03;71.28
22830;BME280;11581;51.250;6.778;2023-08-06T00:27:59;100000.19;;;19.00;71.10
22830;BME280;11581;51.250;6.778;2023-08-06T00:30:27;100005.19;;;18.96;70.90
22830;BME280;11581;51.250;6.778;2023-08-06T00:32:53;99999.41;;;18.93;70.78
22830;BME280;11581;51.250;6.778;2023-08-06T00:35:21;99991.97;;;18.88;70.84
22830;BME280;11581;51.250;6.778;2023-08-06T00:37:47;99994.50;;;18.83;70.85
22830;BME280;11581;51.250;6.778;2023-08-06T00:40:14;99999.50;;;18.80;71.24
22830;BME280;11581;51.250;6.778;2023-08-06T00:42:40;99989.19;;;18.70;71.09
22830;BME280;11581;51.250;6.778;2023-08-06T00:45:09;99995.19;;;18.72;71.31
22830;BME280;11581;51.250;6.778;2023-08-06T00:47:37;99997.28;;;18.70;71.48
22830;BME280;11581;51.250;6.778;2023-08-06T00:50:06;99999.56;;;18.67;71.77
22830;BME280;11581;51.250;6.778;2023-08-06T00:52:33;99995.00;;;18.67;71.89
22830;BME280;11581;51.250;6.778;2023-08-06T00:55:00;100003.97;;;18.61;72.30
22830;BME280;11581;51.250;6.778;2023-08-06T00:57:27;100004.97;;;18.67;72.25
22830;BME280;11581;51.250;6.778;2023-08-06T00:59:54;99999.34;;;18.68;72.12
22830;BME280;11581;51.250;6.778;2023-08-06T01:02:20;99998.34;;;18.69;72.25
22830;BME280;11581;51.250;6.778;2023-08-06T01:04:48;99998.34;;;18.69;72.33
22830;BME280;11581;51.250;6.778;2023-08-06T01:07:24;99994.59;;;18.70;72.04
22830;BME280;11581;51.250;6.778;2023-08-06T01:10:02;99996.84;;;18.73;71.72
22830;BME280;11581;51.250;6.778;2023-08-06T01:12:42;99823.41;;;17.78;71.47
22830;BME280;11581;51.250;6.778;2023-08-06T01:15:15;99944.06;;;18.46;71.89
22830;BME280;11581;51.250;6.778;2023-08-06T01:17:45;99990.59;;;18.79;72.04
22830;BME280;11581;51.250;6.778;2023-08-06T01:20:13;99983.28;;;18.80;71.60
22830;BME280;11581;51.250;6.778;2023-08-06T01:22:41;99987.66;;;18.81;71.57
22830;BME280;11581;51.250;6.778;2023-08-06T01:25:08;99988.25;;;18.83;72.01
22830;BME280;11581;51.250;6.778;2023-08-06T01:27:38;99920.84;;;18.39;71.35
22830;BME280;11581;51.250;6.778;2023-08-06T01:30:12;99983.25;;;18.86;71.57
22830;BME280;11581;51.250;6.778;2023-08-06T01:32:42;99984.09;;;18.87;71.44
22830;BME280;11581;51.250;6.778;2023-08-06T01:35:10;99977.84;;;18.86;71.63
22830;BME280;11581;51.250;6.778;2023-08-06T01:37:38;99975.78;;;18.88;71.61
22830;BME280;11581;51.250;6.778;2023-08-06T01:40:09;99985.50;;;18.89;71.32
22830;BME280;11581;51.250;6.778;2023-08-06T01:42:36;99985.50;;;18.89;71.41
22830;BME280;11581;51.250;6.778;2023-08-06T01:45:04;99984.91;;;18.87;71.73
22830;BME280;11581;51.250;6.778;2023-08-06T01:47:31;99974.94;;;18.88;71.87
22830;BME280;11581;51.250;6.778;2023-08-06T01:49:57;99973.28;;;18.87;71.64
22830;BME280;11581;51.250;6.778;2023-08-06T01:52:24;99927.78;;;18.59;71.91
22830;BME280;11581;51.250;6.778;2023-08-06T01:54:51;99972.22;;;18.88;71.74
22830;BME280;11581;51.250;6.778;2023-08-06T01:57:19;99974.09;;;18.87;71.35
22830;BME280;11581;51.250;6.778;2023-08-06T01:59:46;99966.00;;;18.87;71.95
22830;BME280;11581;51.250;6.778;2023-08-06T02:02:13;99964.13;;;18.88;71.84
22830;BME280;11581;51.250;6.778;2023-08-06T02:04:39;99960.59;;;18.87;71.69
22830;BME280;11581;51.250;6.778;2023-08-06T02:07:06;99955.19;;;18.87;71.61
22830;BME280;11581;51.250;6.778;2023-08-06T02:09:33;99963.28;;;18.87;71.64
22830;BME280;11581;51.250;6.778;2023-08-06T02:12:00;99960.81;;;18.86;71.65
22830;BME280;11581;51.250;6.778;2023-08-06T02:14:29;99960.00;;;18.85;71.36
22830;BME280;11581;51.250;6.778;2023-08-06T02:16:55;99955.63;;;18.84;71.53
22830;BME280;11581;51.250;6.778;2023-08-06T02:19:24;99960.44;;;18.82;71.88
22830;BME280;11581;51.250;6.778;2023-08-06T02:21:51;99959.38;;;18.83;71.86
22830;BME280;11581;51.250;6.778;2023-08-06T02:24:17;99959.59;;;18.82;71.94
22830;BME280;11581;51.250;6.778;2023-08-06T02:26:44;99952.31;;;18.82;71.98
22830;BME280;11581;51.250;6.778;2023-08-06T02:29:12;99908.69;;;18.54;72.09
22830;BME280;11581;51.250;6.778;2023-08-06T02:31:40;99950.44;;;18.83;71.92
22830;BME280;11581;51.250;6.778;2023-08-06T02:34:06;99952.13;;;18.84;71.82
22830;BME280;11581;51.250;6.778;2023-08-06T02:36:33;99839.19;;;18.12;71.80
22830;BME280;11581;51.250;6.778;2023-08-06T02:38:59;99909.53;;;18.55;71.98
22830;BME280;11581;51.250;6.778;2023-08-06T02:41:27;99940.47;;;18.83;72.14
22830;BME280;11581;51.250;6.778;2023-08-06T02:43:56;99947.50;;;18.84;72.06
22830;BME280;11581;51.250;6.778;2023-08-06T02:46:23;99949.19;;;18.85;72.28
22830;BME280;11581;51.250;6.778;2023-08-06T02:48:52;99944.59;;;18.86;72.17
22830;BME280;11581;51.250;6.778;2023-08-06T02:51:18;99941.09;;;18.85;71.99
22830;BME280;11581;51.250;6.778;2023-08-06T02:53:45;99938.38;;;18.85;71.90
22830;BME280;11581;51.250;6.778;2023-08-06T02:56:15;99938.38;;;18.85;71.87
22830;BME280;11581;51.250;6.778;2023-08-06T02:58:59;99938.38;;;18.85;71.84
22830;BME280;11581;51.250;6.778;2023-08-06T03:01:35;99931.31;;;18.84;71.90
22830;BME280;11581;51.250;6.778;2023-08-06T03:04:10;99930.50;;;18.84;71.75
22830;BME280;11581;51.250;6.778;2023-08-06T03:06:41;99933.41;;;18.82;71.85
22830;BME280;11581;51.250;6.778;2023-08-06T03:09:08;99917.25;;;18.76;71.86
22830;BME280;11581;51.250;6.778;2023-08-06T03:11:34;99818.03;;;18.09;72.17
22830;BME280;11581;51.250;6.778;2023-08-06T03:14:05;99915.38;;;18.76;72.11
22830;BME280;11581;51.250;6.778;2023-08-06T03:16:32;99915.97;;;18.78;72.10
22830;BME280;11581;51.250;6.778;2023-08-06T03:18:59;99915.97;;;18.78;72.24
22830;BME280;11581;51.250;6.778;2023-08-06T03:21:27;99919.72;;;18.77;72.00
22830;BME280;11581;51.250;6.778;2023-08-06T03:23:54;99925.97;;;18.78;72.25
22830;BME280;11581;51.250;6.778;2023-08-06T03:26:24;99918.91;;;18.77;72.24
22830;BME280;11581;51.250;6.778;2023-08-06T03:28:51;99924.06;;;18.78;72.23
22830;BME280;11581;51.250;6.778;2023-08-06T03:31:18;99853.16;;;18.40;72.21
22830;BME280;11581;51.250;6.778;2023-08-06T03:33:45;99914.13;;;18.79;72.39
22830;BME280;11581;51.250;6.778;2023-08-06T03:36:18;99916.81;;;18.79;72.38
22830;BME280;11581;51.250;6.778;2023-08-06T03:38:46;99915.97;;;18.78;72.05
22830;BME280;11581;51.250;6.778;2023-08-06T03:41:14;99921.38;;;18.78;72.36
22830;BME280;11581;51.250;6.778;2023-08-06T03:43:40;99916.81;;;18.79;72.10
22830;BME280;11581;51.250;6.778;2023-08-06T03:46:12;99756.78;;;17.85;72.05
22830;BME280;11581;51.250;6.778;2023-08-06T03:48:38;99877.56;;;18.52;72.38
22830;BME280;11581;51.250;6.778;2023-08-06T03:51:05;99909.38;;;18.74;72.18
22830;BME280;11581;51.250;6.778;2023-08-06T03:53:32;99885.38;;;18.60;72.51
22830;BME280;11581;51.250;6.778;2023-08-06T03:56:00;99911.47;;;18.72;72.02
22830;BME280;11581;51.250;6.778;2023-08-06T03:58:27;99906.88;;;18.73;72.60
22830;BME280;11581;51.250;6.778;2023-08-06T04:00:58;99909.00;;;18.71;71.91
22830;BME280;11581;51.250;6.778;2023-08-06T04:03:28;99909.81;;;18.71;72.25
22830;BME280;11581;51.250;6.778;2023-08-06T04:05:55;99908.16;;;18.70;72.34
22830;BME280;11581;51.250;6.778;2023-08-06T04:08:21;99902.75;;;18.70;72.35
22830;BME280;11581;51.250;6.778;2023-08-06T04:10:49;99909.81;;;18.71;72.58
22830;BME280;11581;51.250;6.778;2023-08-06T04:13:17;99758.69;;;17.78;72.27
22830;BME280;11581;51.250;6.778;2023-08-06T04:15:44;99912.72;;;18.70;72.33
22830;BME280;11581;51.250;6.778;2023-08-06T04:18:11;99917.91;;;18.71;72.24
22830;BME280;11581;51.250;6.778;2023-08-06T04:20:42;99907.09;;;18.71;72.01
22830;BME280;11581;51.250;6.778;2023-08-06T04:23:09;99903.38;;;18.72;72.27
22830;BME280;11581;51.250;6.778;2023-08-06T04:25:38;99906.06;;;18.72;72.10
22830;BME280;11581;51.250;6.778;2023-08-06T04:28:06;99910.63;;;18.72;72.48
22830;BME280;11581;51.250;6.778;2023-08-06T04:30:34;99909.81;;;18.71;72.31
22830;BME280;11581;51.250;6.778;2023-08-06T04:33:03;99908.16;;;18.70;72.63
22830;BME280;11581;51.250;6.778;2023-08-06T04:35:29;99817.16;;;18.15;72.43
22830;BME280;11581;51.250;6.778;2023-08-06T04:37:56;99901.69;;;18.71;72.50
22830;BME280;11581;51.250;6.778;2023-08-06T04:40:23;99905.47;;;18.70;72.45
22830;BME280;11581;51.250;6.778;2023-08-06T04:42:49;99908.16;;;18.70;72.15
22830;BME280;11581;51.250;6.778;2023-08-06T04:45:17;99904.84;;;18.68;72.43
22830;BME280;11581;51.250;6.778;2023-08-06T04:47:45;99914.00;;;18.67;72.20
22830;BME280;11581;51.250;6.778;2023-08-06T04:50:11;99903.19;;;18.67;72.46
22830;BME280;11581;51.250;6.778;2023-08-06T04:52:38;99908.38;;;18.69;72.17
22830;BME280;11581;51.250;6.778;2023-08-06T04:55:05;99901.34;;;18.68;72.40
22830;BME280;11581;51.250;6.778;2023-08-06T04:57:32;99904.03;;;18.68;72.34
22830;BME280;11581;51.250;6.778;2023-08-06T04:59:59;99911.91;;;18.69;72.59
22830;BME280;11581;51.250;6.778;2023-08-06T05:02:25;99918.97;;;18.70;72.69
22830;BME280;11581;51.250;6.778;2023-08-06T05:04:53;99914.41;;;18.71;72.83
22830;BME280;11581;51.250;6.778;2023-08-06T05:07:20;99921.22;;;18.73;73.06
22830;BME280;11581;51.250;6.778;2023-08-06T05:09:46;99915.38;;;18.76;72.85
22830;BME280;11581;51.250;6.778;2023-08-06T05:12:13;99902.97;;;18.69;72.87
22830;BME280;11581;51.250;6.778;2023-08-06T05:14:39;99916.38;;;18.82;73.01
22830;BME280;11581;51.250;6.778;2023-08-06T05:17:06;99915.72;;;18.86;73.44
22830;BME280;11581;51.250;6.778;2023-08-06T05:19:33;99917.53;;;18.92;73.76
22830;BME280;11581;51.250;6.778;2023-08-06T05:22:01;99932.22;;;19.03;73.88
22830;BME280;11581;51.250;6.778;2023-08-06T05:24:27;99928.56;;;19.15;75.27
22830;BME280;11581;51.250;6.778;2023-08-06T05:26:54;99932.13;;;19.34;74.76
22830;BME280;11581;51.250;6.778;2023-08-06T05:29:21;99924.28;;;19.50;74.38
22830;BME280;11581;51.250;6.778;2023-08-06T05:31:47;99928.88;;;19.68;74.29
22830;BME280;11581;51.250;6.778;2023-08-06T05:34:14;99923.44;;;19.86;74.12
22830;BME280;11581;51.250;6.778;2023-08-06T05:36:41;99918.00;;;20.04;73.93
22830;BME280;11581;51.250;6.778;2023-08-06T05:39:08;99931.56;;;20.22;72.99
22830;BME280;11581;51.250;6.778;2023-08-06T05:41:35;99929.16;;;20.44;73.58
22830;BME280;11581;51.250;6.778;2023-08-06T05:44:02;99924.38;;;20.69;74.24
22830;BME280;11581;51.250;6.778;2023-08-06T05:46:28;99933.31;;;20.99;74.06
22830;BME280;11581;51.250;6.778;2023-08-06T05:48:55;99926.38;;;21.26;72.77
22830;BME280;11581;51.250;6.778;2023-08-06T05:51:22;99933.44;;;21.61;71.28
22830;BME280;11581;51.250;6.778;2023-08-06T05:53:49;99935.66;;;21.87;69.72
22830;BME280;11581;51.250;6.778;2023-08-06T05:56:17;99930.88;;;22.06;67.77
22830;BME280;11581;51.250;6.778;2023-08-06T05:58:43;99935.53;;;22.22;67.32
22830;BME280;11581;51.250;6.778;2023-08-06T06:01:11;99870.59;;;21.92;66.03
22830;BME280;11581;51.250;6.778;2023-08-06T06:03:38;99936.31;;;22.34;65.35
22830;BME280;11581;51.250;6.778;2023-08-06T06:06:05;99938.22;;;22.34;64.80
22830;BME280;11581;51.250;6.778;2023-08-06T06:08:31;99947.09;;;22.29;64.76
22830;BME280;11581;51.250;6.778;2023-08-06T06:10:59;99948.41;;;22.27;64.68
22830;BME280;11581;51.250;6.778;2023-08-06T06:13:27;99949.13;;;22.22;64.05
22830;BME280;11581;51.250;6.778;2023-08-06T06:15:54;99953.38;;;22.18;64.48
22830;BME280;11581;51.250;6.778;2023-08-06T06:18:20;99949.16;;;22.11;64.31
22830;BME280;11581;51.250;6.778;2023-08-06T06:20:47;99904.03;;;21.70;64.18
22830;BME280;11581;51.250;6.778;2023-08-06T06:23:14;99959.38;;;21.92;64.34
22830;BME280;11581;51.250;6.778;2023-08-06T06:25:42;99958.19;;;21.76;64.27
22830;BME280;11581;51.250;6.778;2023-08-06T06:28:09;99970.56;;;21.72;64.71
22830;BME280;11581;51.250;6.778;2023-08-06T06:30:39;99970.09;;;21.64;64.42
22830;BME280;11581;51.250;6.778;2023-08-06T06:33:08;99968.56;;;21.56;65.32
22830;BME280;11581;51.250;6.778;2023-08-06T06:35:35;99976.00;;;21.49;65.18
22830;BME280;11581;51.250;6.778;2023-08-06T06:38:01;99979.44;;;21.45;65.23
22830;BME280;11581;51.250;6.778;2023-08-06T06:40:28;99960.06;;;21.18;65.70
22830;BME280;11581;51.250;6.778;2023-08-06T06:42:55;99974.94;;;21.39;66.29
22830;BME280;11581;51.250;6.778;2023-08-06T06:45:21;99977.19;;;21.42;66.44
22830;BME280;11581;51.250;6.778;2023-08-06T06:47:49;99978.13;;;21.47;65.94
22830;BME280;11581;51.250;6.778;2023-08-06T06:50:16;99968.81;;;21.55;66.79
22830;BME280;11581;51.250;6.778;2023-08-06T06:52:42;99979.88;;;21.65;67.14
22830;BME280;11581;51.250;6.778;2023-08-06T06:55:09;99974.47;;;21.76;67.07
22830;BME280;11581;51.250;6.778;2023-08-06T06:57:36;99967.03;;;21.95;67.74
22830;BME280;11581;51.250;6.778;2023-08-06T07:00:03;99977.47;;;22.15;67.51
22830;BME280;11581;51.250;6.778;2023-08-06T07:02:29;99978.22;;;22.38;67.01
22830;BME280;11581;51.250;6.778;2023-08-06T07:04:57;99980.03;;;22.61;65.00
22830;BME280;11581;51.250;6.778;2023-08-06T07:07:24;99974.16;;;22.80;64.98
22830;BME280;11581;51.250;6.778;2023-08-06T07:09:51;99981.03;;;22.99;64.81
22830;BME280;11581;51.250;6.778;2023-08-06T07:12:17;99988.13;;;23.17;64.47
22830;BME280;11581;51.250;6.778;2023-08-06T07:14:44;99983.28;;;23.35;64.36
22830;BME280;11581;51.250;6.778;2023-08-06T07:17:10;99991.75;;;23.55;64.58
22830;BME280;11581;51.250;6.778;2023-08-06T07:19:37;99988.25;;;23.76;64.08
22830;BME280;11581;51.250;6.778;2023-08-06T07:22:05;99985.91;;;24.02;62.52
22830;BME280;11581;51.250;6.778;2023-08-06T07:24:32;99876.78;;;23.65;64.30
22830;BME280;11581;51.250;6.778;2023-08-06T07:26:59;99976.31;;;24.64;63.20
22830;BME280;11581;51.250;6.778;2023-08-06T07:29:26;99985.38;;;24.96;62.40
22830;BME280;11581;51.250;6.778;2023-08-06T07:31:53;99979.59;;;25.24;60.88
22830;BME280;11581;51.250;6.778;2023-08-06T07:34:20;99979.53;;;25.45;59.32
22830;BME280;11581;51.250;6.778;2023-08-06T07:36:47;99983.19;;;25.61;58.02
22830;BME280;11581;51.250;6.778;2023-08-06T07:39:15;99985.97;;;25.71;56.13
22830;BME280;11581;51.250;6.778;2023-08-06T07:41:42;99991.47;;;25.76;56.82
22830;BME280;11581;51.250;6.778;2023-08-06T07:44:11;99988.22;;;25.79;57.54
22830;BME280;11581;51.250;6.778;2023-08-06T07:46:37;99990.69;;;25.80;56.88
22830;BME280;11581;51.250;6.778;2023-08-06T07:49:04;99986.31;;;25.84;56.47
22830;BME280;11581;51.250;6.778;2023-08-06T07:51:31;99982.22;;;25.87;56.72
22830;BME280;11581;51.250;6.778;2023-08-06T07:53:57;99988.81;;;25.91;55.96
22830;BME280;11581;51.250;6.778;2023-08-06T07:56:25;99990.47;;;25.92;54.97
22830;BME280;11581;51.250;6.778;2023-08-06T07:58:52;99993.19;;;25.92;55.97
22830;BME280;11581;51.250;6.778;2023-08-06T08:01:18;99993.47;;;25.90;56.04
22830;BME280;11581;51.250;6.778;2023-08-06T08:03:45;99999.47;;;25.87;55.91
22830;BME280;11581;51.250;6.778;2023-08-06T08:06:12;99998.63;;;25.87;55.14
22830;BME280;11581;51.250;6.778;2023-08-06T08:08:38;100008.97;;;25.85;55.00
22830;BME280;11581;51.250;6.778;2023-08-06T08:11:05;100000.25;;;25.83;55.25
22830;BME280;11581;51.250;6.778;2023-08-06T08:13:36;100008.69;;;25.81;54.98
22830;BME280;11581;51.250;6.778;2023-08-06T08:16:03;99943.53;;;25.48;56.91
22830;BME280;11581;51.250;6.778;2023-08-06T08:18:30;100003.28;;;25.91;57.25
22830;BME280;11581;51.250;6.778;2023-08-06T08:20:57;99945.75;;;25.56;57.30
22830;BME280;11581;51.250;6.778;2023-08-06T08:23:23;100014.66;;;26.15;57.03
22830;BME280;11581;51.250;6.778;2023-08-06T08:25:50;100009.81;;;26.32;56.51
22830;BME280;11581;51.250;6.778;2023-08-06T08:28:16;100011.22;;;26.55;57.06
22830;BME280;11581;51.250;6.778;2023-08-06T08:30:44;100013.28;;;26.79;54.36
22830;BME280;11581;51.250;6.778;2023-08-06T08:33:11;100007.28;;;27.02;55.04
22830;BME280;11581;51.250;6.778;2023-08-06T08:35:37;100011.13;;;27.21;54.01
22830;BME280;11581;51.250;6.778;2023-08-06T08:38:04;100007.88;;;27.34;53.22
22830;BME280;11581;51.250;6.778;2023-08-06T08:40:32;100014.69;;;27.47;52.11
22830;BME280;11581;51.250;6.778;2023-08-06T08:42:59;100017.72;;;27.55;52.47
22830;BME280;11581;51.250;6.778;2023-08-06T08:45:28;99954.44;;;27.22;50.00
22830;BME280;11581;51.250;6.778;2023-08-06T08:47:57;100019.34;;;27.66;50.77
22830;BME280;11581;51.250;6.778;2023-08-06T08:50:24;100011.38;;;27.70;51.38
22830;BME280;11581;51.250;6.778;2023-08-06T08:52:50;100016.63;;;27.66;50.93
22830;BME280;11581;51.250;6.778;2023-08-06T08:55:17;100015.50;;;27.62;50.47
22830;BME280;11581;51.250;6.778;2023-08-06T08:57:46;100020.44;;;27.55;49.99
22830;BME280;11581;51.250;6.778;2023-08-06T09:00:13;100025.94;;;27.45;49.63
22830;BME280;11581;51.250;6.778;2023-08-06T09:02:41;100024.31;;;27.34;48.75
22830;BME280;11581;51.250;6.778;2023-08-06T09:05:10;100019.91;;;27.23;48.36
22830;BME280;11581;51.250;6.778;2023-08-06T09:07:41;100025.06;;;27.15;48.70
22830;BME280;11581;51.250;6.778;2023-08-06T09:10:10;100030.28;;;27.11;50.11
22830;BME280;11581;51.250;6.778;2023-08-06T09:12:39;100027.56;;;27.21;53.60
22830;BME280;11581;51.250;6.778;2023-08-06T09:15:06;100038.81;;;27.50;54.82
22830;BME280;11581;51.250;6.778;2023-08-06T09:17:33;100036.59;;;27.92;54.50
22830;BME280;11581;51.250;6.778;2023-08-06T09:20:10;100036.72;;;28.41;48.28
22830;BME280;11581;51.250;6.778;2023-08-06T09:22:37;99972.00;;;28.40;49.92
22830;BME280;11581;51.250;6.778;2023-08-06T09:25:04;100031.81;;;28.91;48.38
22830;BME280;11581;51.250;6.778;2023-08-06T09:27:35;99966.53;;;28.45;48.18
22830;BME280;11581;51.250;6.778;2023-08-06T09:30:03;100061.78;;;28.78;48.75
22830;BME280;11581;51.250;6.778;2023-08-06T09:32:44;100070.97;;;28.38;47.18
22830;BME280;11581;51.250;6.778;2023-08-06T09:35:16;100062.88;;;27.93;47.41
22830;BME280;11581;51.250;6.778;2023-08-06T09:37:43;100058.22;;;27.43;49.04
22830;BME280;11581;51.250;6.778;2023-08-06T09:40:24;100062.50;;;26.84;50.13
22830;BME280;11581;51.250;6.778;2023-08-06T09:42:51;100065.56;;;26.36;51.25
22830;BME280;11581;51.250;6.778;2023-08-06T09:45:18;100074.84;;;25.88;52.02
22830;BME280;11581;51.250;6.778;2023-08-06T09:47:47;100078.56;;;25.41;53.35
22830;BME280;11581;51.250;6.778;2023-08-06T09:50:16;100073.19;;;24.98;54.59
22830;BME280;11581;51.250;6.778;2023-08-06T09:52:47;100090.97;;;24.57;55.93
22830;BME280;11581;51.250;6.778;2023-08-06T09:55:14;100077.69;;;24.01;56.45
22830;BME280;11581;51.250;6.778;2023-08-06T09:57:41;100084.28;;;23.88;56.80
22830;BME280;11581;51.250;6.778;2023-08-06T10:00:10;100097.63;;;23.57;57.50
22830;BME280;11581;51.250;6.778;2023-08-06T10:02:40;100093.00;;;23.24;58.24
22830;BME280;11581;51.250;6.778;2023-08-06T10:05:08;100099.75;;;22.94;59.10
22830;BME280;11581;51.250;6.778;2023-08-06T10:07:39;100098.31;;;22.63;59.68
22830;BME280;11581;51.250;6.778;2023-08-06T10:10:06;100105.78;;;22.33;60.00
22830;BME280;11581;51.250;6.778;2023-08-06T10:12:35;100108.44;;;22.05;61.08
22830;BME280;11581;51.250;6.778;2023-08-06T10:15:08;100101.00;;;21.77;62.09
22830;BME280;11581;51.250;6.778;2023-08-06T10:17:36;100110.97;;;21.54;62.51
22830;BME280;11581;51.250;6.778;2023-08-06T10:20:05;100110.91;;;21.31;63.48
22830;BME280;11581;51.250;6.778;2023-08-06T10:22:33;100113.09;;;21.11;64.18
22830;BME280;11581;51.250;6.778;2023-08-06T10:25:02;100116.88;;;20.92;64.91
22830;BME280;11581;51.250;6.778;2023-08-06T10:27:33;99985.31;;;19.82;65.06
22830;BME280;11581;51.250;6.778;2023-08-06T10:30:22;100127.16;;;20.54;65.66
22830;BME280;11581;51.250;6.778;2023-08-06T10:32:49;100125.84;;;20.38;65.58
22830;BME280;11581;51.250;6.778;2023-08-06T10:35:29;100126.09;;;20.19;66.60
22830;BME280;11581;51.250;6.778;2023-08-06T10:37:59;100140.78;;;20.05;66.72
22830;BME280;11581;51.250;6.778;2023-08-06T10:40:31;100035.34;;;19.24;66.93
22830;BME280;11581;51.250;6.778;2023-08-06T10:42:58;100146.25;;;19.73;67.30
22830;BME280;11581;51.250;6.778;2023-08-06T10:45:25;100156.13;;;19.61;67.70
22830;BME280;11581;51.250;6.778;2023-08-06T10:47:54;100139.84;;;19.43;68.11
22830;BME280;11581;51.250;6.778;2023-08-06T10:50:21;100154.00;;;19.39;68.18
22830;BME280;11581;51.250;6.778;2023-08-06T10:52:48;100147.41;;;19.28;68.81
22830;BME280;11581;51.250;6.778;2023-08-06T10:55:22;100158.91;;;19.17;69.36
22830;BME280;11581;51.250;6.778;2023-08-06T10:57:50;100161.41;;;19.12;68.86
22830;BME280;11581;51.250;6.778;2023-08-06T11:00:17;100156.88;;;19.06;68.99
22830;BME280;11581;51.250;6.778;2023-08-06T11:02:44;100168.16;;;18.97;69.52
22830;BME280;11581;51.250;6.778;2023-08-06T11:05:11;100102.31;;;18.47;69.42
22830;BME280;11581;51.250;6.778;2023-08-06T11:07:37;100180.88;;;18.83;70.57
22830;BME280;11581;51.250;6.778;2023-08-06T11:10:06;100183.38;;;18.78;71.10
22830;BME280;11581;51.250;6.778;2023-08-06T11:12:33;100196.31;;;18.76;71.31
22830;BME280;11581;51.250;6.778;2023-08-06T11:15:03;100188.63;;;18.73;71.33
22830;BME280;11581;51.250;6.778;2023-08-06T11:17:31;100192.78;;;18.69;71.26
22830;BME280;11581;51.250;6.778;2023-08-06T11:19:59;100191.13;;;18.68;71.44
22830;BME280;11581;51.250;6.778;2023-08-06T11:22:26;100104.03;;;18.16;71.69
22830;BME280;11581;51.250;6.778;2023-08-06T11:24:53;100140.16;;;18.21;72.01
22830;BME280;11581;51.250;6.778;2023-08-06T11:27:20;100185.34;;;18.58;72.13
22830;BME280;11581;51.250;6.778;2023-08-06T11:29:46;100024.06;;;17.51;72.69
22830;BME280;11581;51.250;6.778;2023-08-06T11:32:14;100191.16;;;18.55;73.22
22830;BME280;11581;51.250;6.778;2023-08-06T11:34:41;100193.84;;;18.55;72.96
22830;BME280;11581;51.250;6.778;2023-08-06T11:37:09;100206.56;;;18.55;73.26
22830;BME280;11581;51.250;6.778;2023-08-06T11:39:37;100100.34;;;17.91;73.43
22830;BME280;11581;51.250;6.778;2023-08-06T11:42:05;100204.88;;;18.54;73.48
22830;BME280;11581;51.250;6.778;2023-08-06T11:44:34;100225.44;;;18.55;73.96
22830;BME280;11581;51.250;6.778;2023-08-06T11:47:02;100216.50;;;18.54;73.98
22830;BME280;11581;51.250;6.778;2023-08-06T11:49:42;100163.38;;;18.22;74.61
22830;BME280;11581;51.250;6.778;2023-08-06T11:52:13;100211.75;;;18.56;74.31
22830;BME280;11581;51.250;6.778;2023-08-06T11:54:41;100210.69;;;18.57;74.22
22830;BME280;11581;51.250;6.778;2023-08-06T11:57:08;100217.75;;;18.58;74.01
22830;BME280;11581;51.250;6.778;2023-08-06T11:59:34;100222.34;;;18.58;74.31
22830;BME280;11581;51.250;6.778;2023-08-06T12:02:03;100215.69;;;18.47;73.88
22830;BME280;11581;51.250;6.778;2023-08-06T12:04:31;100092.66;;;17.81;73.97
22830;BME280;11581;51.250;6.778;2023-08-06T12:07:05;100229.81;;;18.56;75.05
22830;BME280;11581;51.250;6.778;2023-08-06T12:09:33;100224.63;;;18.54;74.75
22830;BME280;11581;51.250;6.778;2023-08-06T12:12:01;100228.16;;;18.55;74.58
22830;BME280;11581;51.250;6.778;2023-08-06T12:14:28;100198.47;;;18.29;74.78
22830;BME280;11581;51.250;6.778;2023-08-06T12:16:55;100231.06;;;18.53;74.53
22830;BME280;11581;51.250;6.778;2023-08-06T12:19:21;100242.69;;;18.54;74.39
22830;BME280;11581;51.250;6.778;2023-08-06T12:21:48;100242.88;;;18.52;74.67
22830;BME280;11581;51.250;6.778;2023-08-06T12:24:16;100243.94;;;18.51;74.46
22830;BME280;11581;51.250;6.778;2023-08-06T12:26:43;100248.09;;;18.47;74.82
22830;BME280;11581;51.250;6.778;2023-08-06T12:29:09;100246.66;;;18.45;74.90
22830;BME280;11581;51.250;6.778;2023-08-06T12:31:36;100245.41;;;18.41;75.23
22830;BME280;11581;51.250;6.778;2023-08-06T12:34:03;100257.44;;;18.38;75.28
22830;BME280;11581;51.250;6.778;2023-08-06T12:36:29;100215.91;;;18.13;75.81
22830;BME280;11581;51.250;6.778;2023-08-06T12:38:56;100243.50;;;18.35;75.80
22830;BME280;11581;51.250;6.778;2023-08-06T12:41:24;100256.19;;;18.34;76.24
22830;BME280;11581;51.250;6.778;2023-08-06T12:43:51;100232.53;;;18.17;76.38
22830;BME280;11581;51.250;6.778;2023-08-06T12:46:17;100267.78;;;18.35;76.61
22830;BME280;11581;51.250;6.778;2023-08-06T12:48:44;100257.84;;;18.35;77.07
22830;BME280;11581;51.250;6.778;2023-08-06T12:51:10;100245.59;;;18.33;77.41
22830;BME280;11581;51.250;6.778;2023-08-06T12:53:37;100270.13;;;18.44;78.14
22830;BME280;11581;51.250;6.778;2023-08-06T12:56:04;100263.88;;;18.50;77.76
22830;BME280;11581;51.250;6.778;2023-08-06T12:58:32;100285.47;;;18.57;77.50